Grande Prairie Airport
CYQU : now visible

Airfield :











YOU CAN JOIN US ON...

 
LOGIN :

Register | Disclaimer

   EN    FR    IT 

 









Legend :    VFR   Marginal VFR   IFR   Intensive IFR   Very Intensive IFR
Visi :
Ceiling :
>= 8 km
>= 3000ft
5 to 8 km
1000 to 3000 ft
1500m to 5 km
500 to 1000 ft
800 to 1500m
200 to 500 ft
< 800m
< 200 ft
Symbols :   Thunderstorms  Fog  Heavy snow  Heavy precipitations  Wind > 20 kt






- Airport Elevation : 2195 ft
- IATA code : YQU


CYQU - Grande Prairie

CURRENT METAR :
  • 080700Z 18002KT 3SM -SN SCT031 OVC058 M13/M15 A2993 RMK SC4SC4 SLP192

EXPIRED METARs :
  • 080600Z CCA 12003KT 6SM -SN SCT030 OVC060 M12/M15 A2993 RMK SC4SC4 SLP193
  • 080500Z 08004KT 6SM -SN BKN027 OVC055 M12/M15 A2994 RMK SC6SC2 SLP194

TAF TAF CYQU
Valid from the 08 at 07:00 until the 08 at 19:00 UTC


080644Z 0807/0819 VRB03KT P6SM SCT020 OVC060
TEMPO 0807/0812 4SM -SN OVC020
FM081200 28006KT P6SM FEW012
PROB40 0812/0816 2SM BR BKN006
FM081600 26006KT P6SM SKC RMK NXT FCST BY 081300Z



MET'MAP, your aeronautical weather chart ! - Copyright ORBIFLY December 2007 - Disclaimer

ORBIFLY MET'MAP TEAM :

Programming & Development : Alexandra Zaïnal
Concept & original design : Baudouin d'Aumeries
Assistance for programming : Marc-Olivier Méhu
Technical & hardware support : Manuel Goepfert

Contact : metmap@orbifly.com




SOURCES & CREDITS :

   NOAA       Earth
Advisory